sensor_id;sensor_type;location;lat;lon;timestamp;temperature;humidity
66726;HTU21D;53638;51.062;5.804;2022-10-16T00:01:29;13.92;118.99
66726;HTU21D;53638;51.062;5.804;2022-10-16T00:03:57;13.92;118.99
66726;HTU21D;53638;51.062;5.804;2022-10-16T00:06:24;13.94;118.99
66726;HTU21D;53638;51.062;5.804;2022-10-16T00:08:51;13.93;118.99
66726;HTU21D;53638;51.062;5.804;2022-10-16T00:11:22;13.95;118.99
66726;HTU21D;53638;51.062;5.804;2022-10-16T00:13:50;13.95;118.99
66726;HTU21D;53638;51.062;5.804;2022-10-16T00:16:18;13.92;118.99
66726;HTU21D;53638;51.062;5.804;2022-10-16T00:19:10;13.94;118.99
66726;HTU21D;53638;51.062;5.804;2022-10-16T00:21:36;13.92;118.99
66726;HTU21D;53638;51.062;5.804;2022-10-16T00:24:06;13.94;118.99
66726;HTU21D;53638;51.062;5.804;2022-10-16T00:26:34;13.92;118.99
66726;HTU21D;53638;51.062;5.804;2022-10-16T00:29:01;13.92;118.99
66726;HTU21D;53638;51.062;5.804;2022-10-16T00:31:28;13.92;118.99
66726;HTU21D;53638;51.062;5.804;2022-10-16T00:34:20;13.94;118.99
66726;HTU21D;53638;51.062;5.804;2022-10-16T00:36:46;13.92;118.99
66726;HTU21D;53638;51.062;5.804;2022-10-16T00:39:12;13.94;118.99
66726;HTU21D;53638;51.062;5.804;2022-10-16T00:41:38;13.92;118.99
66726;HTU21D;53638;51.062;5.804;2022-10-16T00:44:43;13.90;118.99
66726;HTU21D;53638;51.062;5.804;2022-10-16T00:47:21;13.86;118.99
66726;HTU21D;53638;51.062;5.804;2022-10-16T00:50:06;13.83;118.99
66726;HTU21D;53638;51.062;5.804;2022-10-16T00:52:33;13.82;118.99
66726;HTU21D;53638;51.062;5.804;2022-10-16T00:55:02;13.80;118.99
66726;HTU21D;53638;51.062;5.804;2022-10-16T00:57:29;13.79;118.99
66726;HTU21D;53638;51.062;5.804;2022-10-16T00:59:56;13.77;118.99
66726;HTU21D;53638;51.062;5.804;2022-10-16T01:02:23;13.76;118.99
66726;HTU21D;53638;51.062;5.804;2022-10-16T01:04:52;13.73;118.99
66726;HTU21D;53638;51.062;5.804;2022-10-16T01:07:45;13.71;118.99
66726;HTU21D;53638;51.062;5.804;2022-10-16T01:10:30;13.69;118.99
66726;HTU21D;53638;51.062;5.804;2022-10-16T01:13:04;13.67;118.99
66726;HTU21D;53638;51.062;5.804;2022-10-16T01:15:37;13.66;118.99
66726;HTU21D;53638;51.062;5.804;2022-10-16T01:18:32;13.64;118.99
66726;HTU21D;53638;51.062;5.804;2022-10-16T01:21:06;13.63;118.99
66726;HTU21D;53638;51.062;5.804;2022-10-16T01:26:36;13.58;118.99
66726;HTU21D;53638;51.062;5.804;2022-10-16T01:29:20;13.55;118.99
66726;HTU21D;53638;51.062;5.804;2022-10-16T01:31:54;13.52;118.99
66726;HTU21D;53638;51.062;5.804;2022-10-16T01:34:30;13.50;118.99
66726;HTU21D;53638;51.062;5.804;2022-10-16T01:37:07;13.49;118.99
66726;HTU21D;53638;51.062;5.804;2022-10-16T01:39:39;13.51;118.99
66726;HTU21D;53638;51.062;5.804;2022-10-16T01:42:12;13.53;118.99
66726;HTU21D;53638;51.062;5.804;2022-10-16T01:44:41;13.51;118.99
66726;HTU21D;53638;51.062;5.804;2022-10-16T01:47:12;13.47;118.99
66726;HTU21D;53638;51.062;5.804;2022-10-16T01:49:42;13.44;118.99
66726;HTU21D;53638;51.062;5.804;2022-10-16T01:52:15;13.40;118.99
66726;HTU21D;53638;51.062;5.804;2022-10-16T01:54:46;13.39;118.99
66726;HTU21D;53638;51.062;5.804;2022-10-16T01:57:16;13.39;118.99
66726;HTU21D;53638;51.062;5.804;2022-10-16T01:59:50;13.38;118.99
66726;HTU21D;53638;51.062;5.804;2022-10-16T02:02:48;13.36;118.99
66726;HTU21D;53638;51.062;5.804;2022-10-16T02:05:28;13.35;118.99
66726;HTU21D;53638;51.062;5.804;2022-10-16T02:07:57;13.37;118.99
66726;HTU21D;53638;51.062;5.804;2022-10-16T02:10:24;13.36;118.99
66726;HTU21D;53638;51.062;5.804;2022-10-16T02:12:59;13.37;118.99
66726;HTU21D;53638;51.062;5.804;2022-10-16T02:15:26;13.35;118.99
66726;HTU21D;53638;51.062;5.804;2022-10-16T02:18:20;13.34;118.99
66726;HTU21D;53638;51.062;5.804;2022-10-16T02:21:23;13.34;118.99
66726;HTU21D;53638;51.062;5.804;2022-10-16T02:23:58;13.36;118.99
66726;HTU21D;53638;51.062;5.804;2022-10-16T02:26:35;13.37;118.99
66726;HTU21D;53638;51.062;5.804;2022-10-16T02:29:22;13.37;118.99
66726;HTU21D;53638;51.062;5.804;2022-10-16T02:32:09;13.37;118.99
66726;HTU21D;53638;51.062;5.804;2022-10-16T02:34:37;13.37;118.99
66726;HTU21D;53638;51.062;5.804;2022-10-16T02:37:32;13.37;118.99
66726;HTU21D;53638;51.062;5.804;2022-10-16T02:39:58;13.35;118.99
66726;HTU21D;53638;51.062;5.804;2022-10-16T02:42:31;13.35;118.99
66726;HTU21D;53638;51.062;5.804;2022-10-16T02:44:58;13.36;118.99
66726;HTU21D;53638;51.062;5.804;2022-10-16T02:47:24;13.37;118.99
66726;HTU21D;53638;51.062;5.804;2022-10-16T02:49:50;13.38;118.99
66726;HTU21D;53638;51.062;5.804;2022-10-16T02:52:16;13.36;118.99
66726;HTU21D;53638;51.062;5.804;2022-10-16T02:54:42;13.36;118.99
66726;HTU21D;53638;51.062;5.804;2022-10-16T02:57:08;13.36;118.99
66726;HTU21D;53638;51.062;5.804;2022-10-16T02:59:34;13.36;118.99
66726;HTU21D;53638;51.062;5.804;2022-10-16T03:02:00;13.35;118.99
66726;HTU21D;53638;51.062;5.804;2022-10-16T03:04:26;13.36;118.99
66726;HTU21D;53638;51.062;5.804;2022-10-16T03:06:52;13.37;118.99
66726;HTU21D;53638;51.062;5.804;2022-10-16T03:09:18;13.38;118.99
66726;HTU21D;53638;51.062;5.804;2022-10-16T03:11:44;13.38;118.99
66726;HTU21D;53638;51.062;5.804;2022-10-16T03:14:10;13.35;118.99
66726;HTU21D;53638;51.062;5.804;2022-10-16T03:16:36;13.34;118.99
66726;HTU21D;53638;51.062;5.804;2022-10-16T03:19:02;13.32;118.99
66726;HTU21D;53638;51.062;5.804;2022-10-16T03:21:29;13.33;118.99
66726;HTU21D;53638;51.062;5.804;2022-10-16T03:23:55;13.30;118.99
66726;HTU21D;53638;51.062;5.804;2022-10-16T03:26:21;13.29;118.99
66726;HTU21D;53638;51.062;5.804;2022-10-16T03:28:47;13.26;118.99
66726;HTU21D;53638;51.062;5.804;2022-10-16T03:31:13;13.25;118.99
66726;HTU21D;53638;51.062;5.804;2022-10-16T03:33:39;13.22;118.99
66726;HTU21D;53638;51.062;5.804;2022-10-16T03:36:05;13.20;118.99
66726;HTU21D;53638;51.062;5.804;2022-10-16T03:38:32;13.19;118.99
66726;HTU21D;53638;51.062;5.804;2022-10-16T03:40:58;13.17;118.99
66726;HTU21D;53638;51.062;5.804;2022-10-16T03:43:24;13.17;118.99
66726;HTU21D;53638;51.062;5.804;2022-10-16T03:45:50;13.17;118.99
66726;HTU21D;53638;51.062;5.804;2022-10-16T03:48:18;13.16;118.99
66726;HTU21D;53638;51.062;5.804;2022-10-16T03:50:44;13.16;118.99
66726;HTU21D;53638;51.062;5.804;2022-10-16T03:53:10;13.12;118.99
66726;HTU21D;53638;51.062;5.804;2022-10-16T03:55:36;13.10;118.99
66726;HTU21D;53638;51.062;5.804;2022-10-16T03:58:02;13.09;118.99
66726;HTU21D;53638;51.062;5.804;2022-10-16T04:00:28;13.09;118.99
66726;HTU21D;53638;51.062;5.804;2022-10-16T04:02:54;13.07;118.99
66726;HTU21D;53638;51.062;5.804;2022-10-16T04:05:20;13.06;118.99
66726;HTU21D;53638;51.062;5.804;2022-10-16T04:07:46;13.05;118.99
66726;HTU21D;53638;51.062;5.804;2022-10-16T04:10:12;13.02;118.99
66726;HTU21D;53638;51.062;5.804;2022-10-16T04:12:38;13.00;118.99
66726;HTU21D;53638;51.062;5.804;2022-10-16T04:15:29;12.97;118.99
66726;HTU21D;53638;51.062;5.804;2022-10-16T04:17:54;12.99;118.99
66726;HTU21D;53638;51.062;5.804;2022-10-16T04:20:20;12.97;118.99
66726;HTU21D;53638;51.062;5.804;2022-10-16T04:22:46;12.96;118.99
66726;HTU21D;53638;51.062;5.804;2022-10-16T04:25:12;12.95;118.99
66726;HTU21D;53638;51.062;5.804;2022-10-16T04:27:39;12.94;118.99
66726;HTU21D;53638;51.062;5.804;2022-10-16T04:30:05;12.95;118.99
66726;HTU21D;53638;51.062;5.804;2022-10-16T04:32:31;12.93;118.99
66726;HTU21D;53638;51.062;5.804;2022-10-16T04:34:57;12.91;118.99
66726;HTU21D;53638;51.062;5.804;2022-10-16T04:37:24;12.90;118.99
66726;HTU21D;53638;51.062;5.804;2022-10-16T04:39:51;12.88;118.99
66726;HTU21D;53638;51.062;5.804;2022-10-16T04:42:18;12.88;118.99
66726;HTU21D;53638;51.062;5.804;2022-10-16T04:44:44;12.90;118.99
66726;HTU21D;53638;51.062;5.804;2022-10-16T04:47:10;12.91;118.99
66726;HTU21D;53638;51.062;5.804;2022-10-16T04:49:36;12.91;118.99
66726;HTU21D;53638;51.062;5.804;2022-10-16T04:52:03;12.93;118.99
66726;HTU21D;53638;51.062;5.804;2022-10-16T04:54:29;12.95;118.99
66726;HTU21D;53638;51.062;5.804;2022-10-16T04:56:56;12.97;118.99
66726;HTU21D;53638;51.062;5.804;2022-10-16T04:59:22;12.97;118.99
66726;HTU21D;53638;51.062;5.804;2022-10-16T05:01:48;12.96;118.99
66726;HTU21D;53638;51.062;5.804;2022-10-16T05:04:15;12.95;118.99
66726;HTU21D;53638;51.062;5.804;2022-10-16T05:06:42;12.95;118.99
66726;HTU21D;53638;51.062;5.804;2022-10-16T05:09:08;12.97;118.99
66726;HTU21D;53638;51.062;5.804;2022-10-16T05:11:34;12.97;118.99
66726;HTU21D;53638;51.062;5.804;2022-10-16T05:14:01;13.00;118.99
66726;HTU21D;53638;51.062;5.804;2022-10-16T05:16:27;13.01;118.99
66726;HTU21D;53638;51.062;5.804;2022-10-16T05:18:53;13.03;118.99
66726;HTU21D;53638;51.062;5.804;2022-10-16T05:21:20;13.03;118.99
66726;HTU21D;53638;51.062;5.804;2022-10-16T05:23:46;13.03;118.99
66726;HTU21D;53638;51.062;5.804;2022-10-16T05:26:12;13.01;118.99
66726;HTU21D;53638;51.062;5.804;2022-10-16T05:28:38;12.99;118.99
66726;HTU21D;53638;51.062;5.804;2022-10-16T05:31:05;13.00;118.99
66726;HTU21D;53638;51.062;5.804;2022-10-16T05:33:32;13.00;118.99
66726;HTU21D;53638;51.062;5.804;2022-10-16T05:36:08;13.00;118.99
66726;HTU21D;53638;51.062;5.804;2022-10-16T05:38:35;12.96;118.99
66726;HTU21D;53638;51.062;5.804;2022-10-16T05:41:02;12.94;118.99
66726;HTU21D;53638;51.062;5.804;2022-10-16T05:43:29;12.95;118.99
66726;HTU21D;53638;51.062;5.804;2022-10-16T05:46:03;12.93;118.99
66726;HTU21D;53638;51.062;5.804;2022-10-16T05:48:29;12.91;118.99
66726;HTU21D;53638;51.062;5.804;2022-10-16T05:50:59;12.90;118.99
66726;HTU21D;53638;51.062;5.804;2022-10-16T05:53:27;12.87;118.99
66726;HTU21D;53638;51.062;5.804;2022-10-16T05:55:54;12.86;118.99
66726;HTU21D;53638;51.062;5.804;2022-10-16T05:58:20;12.85;118.99
66726;HTU21D;53638;51.062;5.804;2022-10-16T06:00:53;12.85;118.99
66726;HTU21D;53638;51.062;5.804;2022-10-16T06:03:19;12.81;118.99
66726;HTU21D;53638;51.062;5.804;2022-10-16T06:05:45;12.79;118.99
66726;HTU21D;53638;51.062;5.804;2022-10-16T06:08:11;12.80;118.99
66726;HTU21D;53638;51.062;5.804;2022-10-16T06:10:36;12.79;118.99
66726;HTU21D;53638;51.062;5.804;2022-10-16T06:13:02;12.78;118.99
66726;HTU21D;53638;51.062;5.804;2022-10-16T06:15:29;12.77;118.99
66726;HTU21D;53638;51.062;5.804;2022-10-16T06:17:55;12.78;118.99
66726;HTU21D;53638;51.062;5.804;2022-10-16T06:20:21;12.78;118.99
66726;HTU21D;53638;51.062;5.804;2022-10-16T06:22:47;12.76;118.99
66726;HTU21D;53638;51.062;5.804;2022-10-16T06:25:12;12.76;118.99
66726;HTU21D;53638;51.062;5.804;2022-10-16T06:27:40;12.77;118.99
66726;HTU21D;53638;51.062;5.804;2022-10-16T06:30:07;12.77;118.99
66726;HTU21D;53638;51.062;5.804;2022-10-16T06:32:33;12.76;118.99
66726;HTU21D;53638;51.062;5.804;2022-10-16T06:34:58;12.75;118.99
66726;HTU21D;53638;51.062;5.804;2022-10-16T06:37:24;12.76;118.99
66726;HTU21D;53638;51.062;5.804;2022-10-16T06:39:50;12.76;118.99
66726;HTU21D;53638;51.062;5.804;2022-10-16T06:42:18;12.77;118.99
66726;HTU21D;53638;51.062;5.804;2022-10-16T06:44:44;12.78;118.99
66726;HTU21D;53638;51.062;5.804;2022-10-16T06:47:10;12.79;118.99
66726;HTU21D;53638;51.062;5.804;2022-10-16T06:49:36;12.80;118.99
66726;HTU21D;53638;51.062;5.804;2022-10-16T06:52:02;12.82;118.99
66726;HTU21D;53638;51.062;5.804;2022-10-16T06:54:28;12.84;118.99
66726;HTU21D;53638;51.062;5.804;2022-10-16T06:56:54;12.87;118.99
66726;HTU21D;53638;51.062;5.804;2022-10-16T06:59:21;12.89;118.99
66726;HTU21D;53638;51.062;5.804;2022-10-16T07:01:47;12.88;118.99
66726;HTU21D;53638;51.062;5.804;2022-10-16T07:04:13;12.88;118.99
66726;HTU21D;53638;51.062;5.804;2022-10-16T07:06:39;12.89;118.99
66726;HTU21D;53638;51.062;5.804;2022-10-16T07:09:09;12.90;118.99
66726;HTU21D;53638;51.062;5.804;2022-10-16T07:11:39;12.91;118.99
66726;HTU21D;53638;51.062;5.804;2022-10-16T07:14:18;12.95;118.99
66726;HTU21D;53638;51.062;5.804;2022-10-16T07:16:45;13.00;118.99
66726;HTU21D;53638;51.062;5.804;2022-10-16T07:19:11;13.03;118.99
66726;HTU21D;53638;51.062;5.804;2022-10-16T07:21:39;13.09;118.99
66726;HTU21D;53638;51.062;5.804;2022-10-16T07:24:10;13.12;118.99
66726;HTU21D;53638;51.062;5.804;2022-10-16T07:26:37;13.18;118.99
66726;HTU21D;53638;51.062;5.804;2022-10-16T07:29:06;13.29;118.99
66726;HTU21D;53638;51.062;5.804;2022-10-16T07:31:33;13.38;118.99
66726;HTU21D;53638;51.062;5.804;2022-10-16T07:34:00;13.46;118.99
66726;HTU21D;53638;51.062;5.804;2022-10-16T07:36:29;13.56;118.99
66726;HTU21D;53638;51.062;5.804;2022-10-16T07:38:55;13.66;118.99
66726;HTU21D;53638;51.062;5.804;2022-10-16T07:41:20;13.77;118.99
66726;HTU21D;53638;51.062;5.804;2022-10-16T07:43:49;13.85;118.99
66726;HTU21D;53638;51.062;5.804;2022-10-16T07:46:16;13.91;118.99
66726;HTU21D;53638;51.062;5.804;2022-10-16T07:48:43;13.98;118.99
66726;HTU21D;53638;51.062;5.804;2022-10-16T07:51:37;14.07;118.99
66726;HTU21D;53638;51.062;5.804;2022-10-16T07:54:04;14.09;118.99
66726;HTU21D;53638;51.062;5.804;2022-10-16T07:56:31;14.13;118.99
66726;HTU21D;53638;51.062;5.804;2022-10-16T07:58:57;14.19;118.99
66726;HTU21D;53638;51.062;5.804;2022-10-16T08:01:23;14.25;118.99
66726;HTU21D;53638;51.062;5.804;2022-10-16T08:03:50;14.27;118.99
66726;HTU21D;53638;51.062;5.804;2022-10-16T08:06:17;14.32;118.99
66726;HTU21D;53638;51.062;5.804;2022-10-16T08:08:43;14.39;118.99
66726;HTU21D;53638;51.062;5.804;2022-10-16T08:11:10;14.51;118.99
66726;HTU21D;53638;51.062;5.804;2022-10-16T08:13:36;14.57;118.99
66726;HTU21D;53638;51.062;5.804;2022-10-16T08:16:03;14.65;118.99
66726;HTU21D;53638;51.062;5.804;2022-10-16T08:18:34;14.71;118.99
66726;HTU21D;53638;51.062;5.804;2022-10-16T08:21:02;14.78;118.99
66726;HTU21D;53638;51.062;5.804;2022-10-16T08:23:28;14.85;118.99
66726;HTU21D;53638;51.062;5.804;2022-10-16T08:25:56;14.94;118.99
66726;HTU21D;53638;51.062;5.804;2022-10-16T08:28:23;15.02;118.99
66726;HTU21D;53638;51.062;5.804;2022-10-16T08:30:49;15.08;118.99
66726;HTU21D;53638;51.062;5.804;2022-10-16T08:33:15;15.16;118.99
66726;HTU21D;53638;51.062;5.804;2022-10-16T08:35:40;15.22;118.99
66726;HTU21D;53638;51.062;5.804;2022-10-16T08:38:07;15.32;118.99
66726;HTU21D;53638;51.062;5.804;2022-10-16T08:40:37;15.43;118.99
66726;HTU21D;53638;51.062;5.804;2022-10-16T08:43:21;15.48;118.99
66726;HTU21D;53638;51.062;5.804;2022-10-16T08:50:56;15.71;118.99
66726;HTU21D;53638;51.062;5.804;2022-10-16T08:53:28;15.77;118.99
66726;HTU21D;53638;51.062;5.804;2022-10-16T08:55:55;15.82;118.99
66726;HTU21D;53638;51.062;5.804;2022-10-16T08:58:27;15.87;118.99
66726;HTU21D;53638;51.062;5.804;2022-10-16T09:00:57;15.95;118.99
66726;HTU21D;53638;51.062;5.804;2022-10-16T09:06:46;16.05;118.99
66726;HTU21D;53638;51.062;5.804;2022-10-16T09:12:13;16.20;118.99
66726;HTU21D;53638;51.062;5.804;2022-10-16T09:17:30;16.33;118.99
66726;HTU21D;53638;51.062;5.804;2022-10-16T09:20:29;16.40;118.99
66726;HTU21D;53638;51.062;5.804;2022-10-16T09:25:31;16.47;118.99
66726;HTU21D;53638;51.062;5.804;2022-10-16T09:27:58;16.49;118.99
66726;HTU21D;53638;51.062;5.804;2022-10-16T09:30:28;16.54;118.99
66726;HTU21D;53638;51.062;5.804;2022-10-16T09:32:58;16.59;118.99
66726;HTU21D;53638;51.062;5.804;2022-10-16T09:35:33;16.63;118.99
66726;HTU21D;53638;51.062;5.804;2022-10-16T09:38:01;16.67;118.99
66726;HTU21D;53638;51.062;5.804;2022-10-16T09:40:32;16.73;118.99
66726;HTU21D;53638;51.062;5.804;2022-10-16T09:45:36;16.87;118.99
66726;HTU21D;53638;51.062;5.804;2022-10-16T09:48:11;16.92;118.99
66726;HTU21D;53638;51.062;5.804;2022-10-16T09:50:38;16.95;118.99
66726;HTU21D;53638;51.062;5.804;2022-10-16T09:53:12;17.05;118.99
66726;HTU21D;53638;51.062;5.804;2022-10-16T09:55:50;17.10;118.99
66726;HTU21D;53638;51.062;5.804;2022-10-16T09:58:16;17.15;118.99
66726;HTU21D;53638;51.062;5.804;2022-10-16T10:00:52;17.20;118.99
66726;HTU21D;53638;51.062;5.804;2022-10-16T10:03:34;17.25;118.99
66726;HTU21D;53638;51.062;5.804;2022-10-16T10:06:14;17.32;118.99
66726;HTU21D;53638;51.062;5.804;2022-10-16T10:08:53;17.38;118.99
66726;HTU21D;53638;51.062;5.804;2022-10-16T10:11:38;17.44;118.99
66726;HTU21D;53638;51.062;5.804;2022-10-16T10:14:06;17.50;118.99
66726;HTU21D;53638;51.062;5.804;2022-10-16T10:16:34;17.61;118.99
66726;HTU21D;53638;51.062;5.804;2022-10-16T10:19:00;17.78;118.99
66726;HTU21D;53638;51.062;5.804;2022-10-16T10:21:26;18.41;118.99
66726;HTU21D;53638;51.062;5.804;2022-10-16T10:23:55;20.27;118.99
66726;HTU21D;53638;51.062;5.804;2022-10-16T10:26:28;22.08;118.99
66726;HTU21D;53638;51.062;5.804;2022-10-16T10:29:06;23.53;118.99
66726;HTU21D;53638;51.062;5.804;2022-10-16T10:31:52;24.63;118.99
66726;HTU21D;53638;51.062;5.804;2022-10-16T10:34:46;25.68;118.99
66726;HTU21D;53638;51.062;5.804;2022-10-16T10:37:24;26.37;118.99
66726;HTU21D;53638;51.062;5.804;2022-10-16T10:40:09;26.79;118.99
66726;HTU21D;53638;51.062;5.804;2022-10-16T10:42:57;26.33;118.99
66726;HTU21D;53638;51.062;5.804;2022-10-16T10:45:43;26.20;118.99
66726;HTU21D;53638;51.062;5.804;2022-10-16T10:50:48;25.37;118.99
66726;HTU21D;53638;51.062;5.804;2022-10-16T10:53:29;24.99;118.99
66726;HTU21D;53638;51.062;5.804;2022-10-16T10:56:36;24.94;118.99
66726;HTU21D;53638;51.062;5.804;2022-10-16T11:05:31;23.87;118.99
66726;HTU21D;53638;51.062;5.804;2022-10-16T11:15:36;25.09;118.99
66726;HTU21D;53638;51.062;5.804;2022-10-16T11:25:31;27.01;118.99
66726;HTU21D;53638;51.062;5.804;2022-10-16T11:28:32;27.01;118.99
66726;HTU21D;53638;51.062;5.804;2022-10-16T11:31:14;26.67;118.99
66726;HTU21D;53638;51.062;5.804;2022-10-16T11:36:44;26.87;118.99
66726;HTU21D;53638;51.062;5.804;2022-10-16T11:40:23;26.90;118.99
66726;HTU21D;53638;51.062;5.804;2022-10-16T11:43:20;27.17;118.99
66726;HTU21D;53638;51.062;5.804;2022-10-16T11:46:02;26.94;118.99
66726;HTU21D;53638;51.062;5.804;2022-10-16T11:49:26;26.01;118.99
66726;HTU21D;53638;51.062;5.804;2022-10-16T11:55:18;27.07;118.99
66726;HTU21D;53638;51.062;5.804;2022-10-16T11:57:52;27.43;118.99
66726;HTU21D;53638;51.062;5.804;2022-10-16T12:00:37;27.01;118.99
66726;HTU21D;53638;51.062;5.804;2022-10-16T12:03:27;26.20;118.99
66726;HTU21D;53638;51.062;5.804;2022-10-16T12:06:22;25.22;118.99
66726;HTU21D;53638;51.062;5.804;2022-10-16T12:09:36;24.69;118.99
66726;HTU21D;53638;51.062;5.804;2022-10-16T12:12:42;25.03;118.99
66726;HTU21D;53638;51.062;5.804;2022-10-16T12:15:32;26.41;118.99
66726;HTU21D;53638;51.062;5.804;2022-10-16T12:18:06;26.54;118.99
66726;HTU21D;53638;51.062;5.804;2022-10-16T12:21:15;25.44;118.99
66726;HTU21D;53638;51.062;5.804;2022-10-16T12:24:41;24.66;118.99
66726;HTU21D;53638;51.062;5.804;2022-10-16T12:27:27;24.24;118.99
66726;HTU21D;53638;51.062;5.804;2022-10-16T12:30:15;23.95;118.99
66726;HTU21D;53638;51.062;5.804;2022-10-16T12:32:53;24.04;118.99
66726;HTU21D;53638;51.062;5.804;2022-10-16T12:35:25;24.11;118.99
66726;HTU21D;53638;51.062;5.804;2022-10-16T12:38:21;23.80;118.99
66726;HTU21D;53638;51.062;5.804;2022-10-16T12:41:01;23.99;118.99
66726;HTU21D;53638;51.062;5.804;2022-10-16T12:46:01;23.92;118.61
66726;HTU21D;53638;51.062;5.804;2022-10-16T12:48:40;23.64;118.99
66726;HTU21D;53638;51.062;5.804;2022-10-16T12:51:46;23.75;118.99
66726;HTU21D;53638;51.062;5.804;2022-10-16T12:54:38;24.74;118.99
66726;HTU21D;53638;51.062;5.804;2022-10-16T12:57:13;25.13;118.99
66726;HTU21D;53638;51.062;5.804;2022-10-16T13:00:22;25.49;118.99
66726;HTU21D;53638;51.062;5.804;2022-10-16T13:03:26;25.69;115.46
66726;HTU21D;53638;51.062;5.804;2022-10-16T13:06:17;25.40;112.99
66726;HTU21D;53638;51.062;5.804;2022-10-16T13:08:56;24.89;114.85
66726;HTU21D;53638;51.062;5.804;2022-10-16T13:11:48;24.46;113.38
66726;HTU21D;53638;51.062;5.804;2022-10-16T13:15:27;24.16;118.77
66726;HTU21D;53638;51.062;5.804;2022-10-16T13:19:08;23.90;118.24
66726;HTU21D;53638;51.062;5.804;2022-10-16T13:31:20;22.90;118.99
66726;HTU21D;53638;51.062;5.804;2022-10-16T13:34:48;22.87;118.99
66726;HTU21D;53638;51.062;5.804;2022-10-16T13:37:18;22.97;118.99
66726;HTU21D;53638;51.062;5.804;2022-10-16T13:40:33;23.11;118.99
66726;HTU21D;53638;51.062;5.804;2022-10-16T13:43:09;23.18;118.99
66726;HTU21D;53638;51.062;5.804;2022-10-16T13:49:11;23.08;118.99
66726;HTU21D;53638;51.062;5.804;2022-10-16T13:51:37;23.06;118.99
66726;HTU21D;53638;51.062;5.804;2022-10-16T13:54:53;22.99;118.99
66726;HTU21D;53638;51.062;5.804;2022-10-16T14:04:40;22.41;118.99
66726;HTU21D;53638;51.062;5.804;2022-10-16T14:07:14;22.50;118.99
66726;HTU21D;53638;51.062;5.804;2022-10-16T14:10:40;22.55;118.99
66726;HTU21D;53638;51.062;5.804;2022-10-16T14:13:17;22.46;118.99
66726;HTU21D;53638;51.062;5.804;2022-10-16T14:15:52;22.31;118.99
66726;HTU21D;53638;51.062;5.804;2022-10-16T14:18:24;22.21;118.99
66726;HTU21D;53638;51.062;5.804;2022-10-16T14:20:52;22.22;118.99
66726;HTU21D;53638;51.062;5.804;2022-10-16T14:23:29;22.17;118.99
66726;HTU21D;53638;51.062;5.804;2022-10-16T14:28:39;22.11;118.99
66726;HTU21D;53638;51.062;5.804;2022-10-16T14:31:28;22.03;118.99
66726;HTU21D;53638;51.062;5.804;2022-10-16T14:33:54;21.91;118.99
66726;HTU21D;53638;51.062;5.804;2022-10-16T14:36:21;21.79;118.99
66726;HTU21D;53638;51.062;5.804;2022-10-16T14:39:06;21.81;118.99
66726;HTU21D;53638;51.062;5.804;2022-10-16T14:41:46;21.90;118.99
66726;HTU21D;53638;51.062;5.804;2022-10-16T14:44:14;21.96;118.99
66726;HTU21D;53638;51.062;5.804;2022-10-16T14:46:43;21.95;118.99
66726;HTU21D;53638;51.062;5.804;2022-10-16T14:51:35;22.02;118.99
66726;HTU21D;53638;51.062;5.804;2022-10-16T14:54:02;22.01;118.99
66726;HTU21D;53638;51.062;5.804;2022-10-16T14:56:33;21.97;118.99
66726;HTU21D;53638;51.062;5.804;2022-10-16T14:59:00;21.88;118.99
66726;HTU21D;53638;51.062;5.804;2022-10-16T15:01:27;21.84;118.99
66726;HTU21D;53638;51.062;5.804;2022-10-16T15:03:52;21.78;118.99
66726;HTU21D;53638;51.062;5.804;2022-10-16T15:06:21;21.68;118.99
66726;HTU21D;53638;51.062;5.804;2022-10-16T15:08:47;21.67;118.99
66726;HTU21D;53638;51.062;5.804;2022-10-16T15:11:16;21.63;118.99
66726;HTU21D;53638;51.062;5.804;2022-10-16T15:13:43;21.49;118.99
66726;HTU21D;53638;51.062;5.804;2022-10-16T15:16:12;21.44;118.99
66726;HTU21D;53638;51.062;5.804;2022-10-16T15:18:39;21.39;118.99
66726;HTU21D;53638;51.062;5.804;2022-10-16T15:21:05;21.30;118.99
66726;HTU21D;53638;51.062;5.804;2022-10-16T15:23:30;21.19;118.99
66726;HTU21D;53638;51.062;5.804;2022-10-16T15:25:57;21.08;118.99
66726;HTU21D;53638;51.062;5.804;2022-10-16T15:28:24;20.96;118.99
66726;HTU21D;53638;51.062;5.804;2022-10-16T15:30:52;20.95;118.99
66726;HTU21D;53638;51.062;5.804;2022-10-16T15:33:21;20.95;118.99
66726;HTU21D;53638;51.062;5.804;2022-10-16T15:35:50;20.91;118.99
66726;HTU21D;53638;51.062;5.804;2022-10-16T15:38:19;20.85;118.99
66726;HTU21D;53638;51.062;5.804;2022-10-16T15:40:47;20.76;118.99
66726;HTU21D;53638;51.062;5.804;2022-10-16T15:43:13;20.74;118.99
66726;HTU21D;53638;51.062;5.804;2022-10-16T15:45:39;20.75;118.99
66726;HTU21D;53638;51.062;5.804;2022-10-16T15:48:06;20.76;118.99
66726;HTU21D;53638;51.062;5.804;2022-10-16T15:50:33;20.75;118.99
66726;HTU21D;53638;51.062;5.804;2022-10-16T15:52:59;20.66;118.99
66726;HTU21D;53638;51.062;5.804;2022-10-16T15:55:25;20.62;118.99
66726;HTU21D;53638;51.062;5.804;2022-10-16T15:57:51;20.57;118.99
66726;HTU21D;53638;51.062;5.804;2022-10-16T16:00:19;20.56;118.99
66726;HTU21D;53638;51.062;5.804;2022-10-16T16:02:53;20.53;118.99
66726;HTU21D;53638;51.062;5.804;2022-10-16T16:05:20;20.48;118.99
66726;HTU21D;53638;51.062;5.804;2022-10-16T16:07:47;20.44;118.99
66726;HTU21D;53638;51.062;5.804;2022-10-16T16:10:14;20.39;118.99
66726;HTU21D;53638;51.062;5.804;2022-10-16T16:12:40;20.28;118.99
66726;HTU21D;53638;51.062;5.804;2022-10-16T16:15:08;20.19;118.99
66726;HTU21D;53638;51.062;5.804;2022-10-16T16:17:35;20.12;118.99
66726;HTU21D;53638;51.062;5.804;2022-10-16T16:20:04;20.00;118.99
66726;HTU21D;53638;51.062;5.804;2022-10-16T16:22:30;19.94;118.99
66726;HTU21D;53638;51.062;5.804;2022-10-16T16:24:56;19.90;118.99
66726;HTU21D;53638;51.062;5.804;2022-10-16T16:27:22;19.87;118.99
66726;HTU21D;53638;51.062;5.804;2022-10-16T16:29:50;19.82;118.99
66726;HTU21D;53638;51.062;5.804;2022-10-16T16:32:16;19.77;118.99
66726;HTU21D;53638;51.062;5.804;2022-10-16T16:34:42;19.73;118.99
66726;HTU21D;53638;51.062;5.804;2022-10-16T16:37:08;19.66;118.99
66726;HTU21D;53638;51.062;5.804;2022-10-16T16:39:34;19.58;118.99
66726;HTU21D;53638;51.062;5.804;2022-10-16T16:42:00;19.53;118.99
66726;HTU21D;53638;51.062;5.804;2022-10-16T16:44:26;19.45;118.99
66726;HTU21D;53638;51.062;5.804;2022-10-16T16:46:52;19.41;118.99
66726;HTU21D;53638;51.062;5.804;2022-10-16T16:49:18;19.36;118.99
66726;HTU21D;53638;51.062;5.804;2022-10-16T16:51:44;19.30;118.99
66726;HTU21D;53638;51.062;5.804;2022-10-16T16:54:10;19.26;118.99
66726;HTU21D;53638;51.062;5.804;2022-10-16T16:56:38;19.22;118.99
66726;HTU21D;53638;51.062;5.804;2022-10-16T16:59:04;19.11;118.99